createdAt,value
2023-03-15T00:02:02.030Z,43.54
2023-03-15T00:07:04.232Z,44.07
2023-03-15T00:12:07.574Z,43.64
2023-03-15T00:17:09.676Z,44.37
2023-03-15T00:22:11.807Z,44.44
2023-03-15T00:27:13.925Z,44.78
2023-03-15T00:32:16.180Z,44.97
2023-03-15T00:37:19.901Z,44.64
2023-03-15T00:42:22.230Z,45.43
2023-03-15T00:47:25.948Z,45.14
2023-03-15T00:52:36.121Z,45.50
2023-03-15T00:57:38.259Z,45.36
2023-03-15T01:02:41.239Z,45.39
2023-03-15T01:07:45.732Z,45.85
2023-03-15T01:12:47.821Z,45.09
2023-03-15T01:17:50.857Z,45.53
2023-03-15T01:22:53.077Z,45.22
2023-03-15T01:27:55.169Z,45.62
2023-03-15T01:32:57.459Z,45.74
2023-03-15T01:37:59.661Z,45.87
2023-03-15T01:43:05.314Z,46.24
2023-03-15T01:48:08.017Z,46.36
2023-03-15T01:53:11.260Z,46.26
2023-03-15T01:58:14.426Z,46.40
2023-03-15T02:03:38.152Z,46.89
2023-03-15T02:08:43.803Z,46.57
2023-03-15T02:13:49.347Z,46.89
2023-03-15T02:18:51.586Z,47.11
2023-03-15T02:24:26.106Z,47.22
2023-03-15T02:29:29.481Z,47.10
2023-03-15T02:34:31.974Z,47.40
2023-03-15T02:39:34.171Z,47.15
2023-03-15T02:44:37.906Z,47.64
2023-03-15T02:49:44.735Z,47.67
2023-03-15T02:54:46.892Z,47.69
2023-03-15T02:59:51.172Z,47.64
2023-03-15T03:04:53.999Z,48.33
2023-03-15T03:09:56.249Z,48.38
2023-03-15T03:14:59.238Z,49.17
2023-03-15T03:20:01.528Z,48.67
2023-03-15T03:25:10.473Z,49.03
2023-03-15T03:30:14.167Z,49.22
2023-03-15T03:35:22.887Z,48.72
2023-03-15T03:40:25.055Z,49.41
2023-03-15T03:45:27.294Z,49.10
2023-03-15T03:50:33.478Z,49.18
2023-03-15T03:55:35.830Z,48.79
2023-03-15T04:00:38.263Z,49.34
2023-03-15T04:05:42.087Z,49.29
2023-03-15T04:10:45.380Z,48.82
2023-03-15T04:15:48.570Z,49.33
2023-03-15T04:20:54.788Z,48.98
2023-03-15T04:25:58.230Z,48.81
2023-03-15T04:31:18.817Z,48.93
2023-03-15T04:36:33.828Z,48.40
2023-03-15T04:41:45.014Z,48.66
2023-03-15T04:47:25.519Z,47.87
2023-03-15T04:52:59.508Z,47.85
2023-03-15T04:58:25.002Z,47.52
2023-03-15T05:03:53.884Z,46.62
2023-03-15T05:09:19.561Z,46.41
2023-03-15T05:14:24.603Z,46.32
2023-03-15T05:19:46.291Z,45.54
2023-03-15T05:25:15.546Z,44.60
2023-03-15T05:30:36.085Z,42.88
2023-03-15T05:35:49.036Z,42.81
2023-03-15T05:41:18.058Z,42.10
2023-03-15T05:46:43.625Z,40.72
2023-03-15T05:52:21.123Z,39.02
2023-03-15T05:57:31.559Z,38.49
2023-03-15T06:02:52.631Z,37.91
2023-03-15T06:08:17.639Z,37.34
2023-03-15T06:13:22.888Z,37.63
2023-03-15T06:18:25.336Z,37.29
2023-03-15T06:23:27.565Z,36.28
2023-03-15T06:28:29.833Z,34.66
2023-03-15T06:33:35.112Z,33.29
2023-03-15T06:38:37.468Z,33.25
2023-03-15T06:43:41.162Z,32.02
2023-03-15T06:48:43.491Z,31.44
2023-03-15T06:53:47.781Z,31.36
2023-03-15T06:58:50.690Z,30.79
2023-03-15T07:03:52.769Z,30.42
2023-03-15T07:08:55.224Z,30.13
2023-03-15T07:13:58.664Z,30.71
2023-03-15T07:19:01.547Z,29.72
2023-03-15T07:24:03.838Z,29.87
2023-03-15T07:29:05.974Z,30.67
2023-03-15T07:34:08.082Z,30.53
2023-03-15T07:39:10.643Z,29.76
2023-03-15T07:44:12.786Z,28.28
2023-03-15T07:49:14.901Z,28.93
2023-03-15T07:54:17.196Z,30.16
2023-03-15T07:59:19.297Z,31.09
2023-03-15T08:04:21.727Z,30.37
2023-03-15T08:09:24.030Z,30.63
2023-03-15T08:14:26.259Z,29.69
2023-03-15T08:19:28.365Z,29.58
2023-03-15T08:24:30.577Z,30.21
2023-03-15T08:29:32.676Z,31.85
2023-03-15T08:34:35.516Z,32.27
2023-03-15T08:39:41.083Z,33.23
2023-03-15T08:44:43.276Z,34.40
2023-03-15T08:49:45.371Z,34.36
2023-03-15T08:54:48.150Z,34.28
2023-03-15T08:59:50.338Z,34.15
2023-03-15T09:04:53.525Z,33.49
2023-03-15T09:09:55.748Z,32.66
2023-03-15T09:14:57.857Z,33.00
2023-03-15T09:20:00.132Z,33.59
2023-03-15T09:25:02.354Z,34.13
2023-03-15T09:30:05.626Z,34.02
2023-03-15T09:35:12.671Z,32.75
2023-03-15T09:40:33.234Z,33.82
2023-03-15T09:46:12.155Z,33.70
2023-03-15T09:51:37.988Z,33.24
2023-03-15T09:56:46.118Z,33.34
2023-03-15T10:01:52.614Z,33.99
2023-03-15T10:06:57.825Z,35.16
2023-03-15T10:12:09.029Z,35.17
2023-03-15T10:17:21.304Z,35.02
2023-03-15T10:22:34.109Z,35.45
2023-03-15T10:27:46.102Z,33.45
2023-03-15T10:32:52.300Z,32.61
2023-03-15T10:37:54.496Z,30.18
2023-03-15T10:42:58.218Z,28.60
2023-03-15T10:48:01.230Z,28.54
2023-03-15T10:53:11.794Z,30.10
2023-03-15T10:58:31.178Z,32.37
2023-03-15T11:03:35.068Z,32.10
2023-03-15T11:08:42.024Z,32.28
2023-03-15T11:13:55.741Z,32.01
2023-03-15T11:19:01.629Z,32.03
2023-03-15T11:24:06.140Z,32.84
2023-03-15T11:29:17.905Z,33.54
2023-03-15T11:34:58.969Z,33.79
2023-03-15T11:40:14.424Z,33.97
2023-03-15T11:45:56.071Z,34.34
2023-03-15T11:51:24.681Z,33.61
2023-03-15T11:56:44.477Z,32.80
2023-03-15T12:01:52.288Z,32.83
2023-03-15T12:06:57.008Z,32.75
2023-03-15T12:12:01.405Z,33.01
2023-03-15T12:17:29.174Z,32.57
2023-03-15T12:22:33.875Z,32.84
2023-03-15T12:27:37.888Z,34.25
2023-03-15T12:32:50.337Z,34.11
2023-03-15T12:37:54.150Z,33.03
2023-03-15T12:42:57.503Z,32.33
2023-03-15T12:47:59.586Z,32.29
2023-03-15T12:53:05.217Z,31.99
2023-03-15T12:58:13.233Z,31.74
2023-03-15T13:03:22.268Z,31.82
2023-03-15T13:08:30.456Z,32.82
2023-03-15T13:14:03.428Z,33.33
2023-03-15T13:19:19.961Z,35.32
2023-03-15T13:24:49.562Z,37.42
2023-03-15T13:29:51.913Z,38.08
2023-03-15T13:34:56.974Z,37.41
2023-03-15T13:40:08.866Z,35.80
2023-03-15T13:45:16.423Z,34.87
2023-03-15T13:50:20.926Z,35.11
2023-03-15T13:55:25.180Z,35.29
2023-03-15T14:00:27.849Z,35.74
2023-03-15T14:05:33.736Z,35.83
2023-03-15T14:10:37.145Z,36.37
2023-03-15T14:15:44.367Z,36.62
2023-03-15T14:21:08.139Z,37.57
2023-03-15T14:26:21.732Z,37.72
2023-03-15T14:31:30.477Z,38.81
2023-03-15T14:36:41.888Z,40.90
2023-03-15T14:41:44.011Z,42.05
2023-03-15T14:46:45.974Z,39.80
2023-03-15T14:51:52.536Z,43.42
2023-03-15T14:56:54.822Z,43.69
2023-03-15T15:01:58.644Z,43.53
2023-03-15T15:07:03.311Z,44.13
2023-03-15T15:12:05.660Z,44.33
2023-03-15T15:17:07.833Z,44.94
2023-03-15T15:22:11.533Z,45.78
2023-03-15T15:27:15.194Z,45.51
2023-03-15T15:32:17.451Z,45.97
2023-03-15T15:37:19.540Z,46.08
2023-03-15T15:42:21.649Z,46.09
2023-03-15T15:47:23.767Z,46.55
2023-03-15T15:52:25.951Z,47.06
2023-03-15T15:57:28.698Z,47.72
2023-03-15T16:02:30.934Z,47.95
2023-03-15T16:07:33.301Z,48.07
2023-03-15T16:12:35.635Z,48.00
2023-03-15T16:17:39.213Z,48.94
2023-03-15T16:22:45.204Z,48.44
2023-03-15T16:27:48.085Z,49.14
2023-03-15T16:32:55.431Z,48.67
2023-03-15T16:37:58.662Z,48.84
2023-03-15T16:43:01.343Z,49.39
2023-03-15T16:48:03.788Z,48.96
2023-03-15T16:53:08.509Z,49.43
2023-03-15T16:58:16.588Z,49.05
2023-03-15T17:03:18.926Z,49.26
2023-03-15T17:08:21.455Z,49.08
2023-03-15T17:13:28.816Z,49.00
2023-03-15T17:18:30.969Z,49.31
2023-03-15T17:23:33.215Z,49.19
2023-03-15T17:28:35.288Z,49.15
2023-03-15T17:33:37.382Z,48.56
2023-03-15T17:38:42.649Z,48.64
2023-03-15T17:43:45.067Z,48.98
2023-03-15T17:48:47.889Z,48.77
2023-03-15T17:53:50.245Z,48.33
2023-03-15T17:58:52.940Z,48.41
2023-03-15T18:03:55.564Z,48.03
2023-03-15T18:08:57.808Z,47.36
2023-03-15T18:14:00.721Z,47.47
2023-03-15T18:19:02.906Z,47.67
2023-03-15T18:24:05.290Z,46.95
2023-03-15T18:29:07.371Z,47.59
2023-03-15T18:34:15.259Z,47.36
2023-03-15T18:39:17.466Z,47.36
2023-03-15T18:44:19.589Z,47.49
2023-03-15T18:49:21.721Z,47.17
2023-03-15T18:54:24.310Z,47.47
2023-03-15T18:59:26.589Z,47.42
2023-03-15T19:04:29.826Z,47.32
2023-03-15T19:09:33.034Z,47.60
2023-03-15T19:14:35.140Z,47.46
2023-03-15T19:19:37.956Z,47.40
2023-03-15T19:24:40.104Z,47.98
2023-03-15T19:29:42.275Z,47.54
2023-03-15T19:34:44.543Z,47.95
2023-03-15T19:39:46.712Z,48.43
2023-03-15T19:44:48.757Z,48.16
2023-03-15T19:49:50.940Z,48.04
2023-03-15T19:54:53.489Z,48.12
2023-03-15T19:59:55.763Z,48.40
2023-03-15T20:04:57.890Z,48.63
2023-03-15T20:10:00.165Z,48.98
2023-03-15T20:15:02.546Z,49.13
2023-03-15T20:20:13.369Z,49.29
2023-03-15T20:25:17.508Z,50.48
2023-03-15T20:30:20.036Z,50.32
2023-03-15T20:35:22.321Z,50.33
2023-03-15T20:40:24.941Z,49.87
2023-03-15T20:45:27.537Z,50.57
2023-03-15T20:50:29.709Z,50.61
2023-03-15T20:55:32.355Z,50.47
2023-03-15T21:00:34.849Z,50.39
2023-03-15T21:05:38.916Z,50.81
2023-03-15T21:10:41.216Z,56.90
2023-03-15T21:15:47.987Z,57.80
2023-03-15T21:21:16.460Z,58.19
2023-03-15T21:26:18.533Z,62.46
2023-03-15T21:31:20.708Z,62.90
2023-03-15T21:36:22.882Z,62.94
2023-03-15T21:41:25.016Z,62.94
2023-03-15T21:46:27.154Z,62.75
2023-03-15T21:51:29.623Z,63.12
2023-03-15T21:56:32.021Z,63.63
2023-03-15T22:01:34.221Z,63.61
2023-03-15T22:06:36.394Z,64.37
2023-03-15T22:11:38.563Z,63.93
2023-03-15T22:16:40.814Z,65.10
2023-03-15T22:21:42.932Z,65.15
2023-03-15T22:26:45.070Z,64.81
2023-03-15T22:31:47.147Z,65.17
2023-03-15T22:36:49.381Z,65.56
2023-03-15T22:41:51.709Z,65.46
2023-03-15T22:46:53.840Z,65.82
2023-03-15T22:51:55.992Z,65.88
2023-03-15T22:56:58.109Z,65.46
2023-03-15T23:02:00.208Z,65.18
2023-03-15T23:07:02.346Z,64.67
2023-03-15T23:12:04.622Z,64.87
2023-03-15T23:17:06.736Z,65.17
2023-03-15T23:22:08.899Z,65.33
2023-03-15T23:27:11.764Z,65.14
2023-03-15T23:32:13.840Z,64.45
2023-03-15T23:37:15.906Z,65.16
2023-03-15T23:42:18.033Z,64.51
2023-03-15T23:47:22.291Z,64.98
2023-03-15T23:52:25.825Z,64.16
2023-03-15T23:57:28.142Z,64.17
